createdAt,value
2023-06-11T00:02:08.073Z,12.65
2023-06-11T00:04:36.859Z,13.35
2023-06-11T00:07:06.523Z,12.40
2023-06-11T00:09:34.078Z,12.05
2023-06-11T00:12:06.740Z,11.65
2023-06-11T00:14:34.080Z,12.10
2023-06-11T00:17:11.050Z,12.70
2023-06-11T00:20:04.550Z,13.80
2023-06-11T00:22:34.366Z,12.65
2023-06-11T00:25:01.668Z,12.77
2023-06-11T00:27:32.242Z,12.30
2023-06-11T00:30:04.499Z,12.77
2023-06-11T00:32:36.148Z,13.05
2023-06-11T00:35:10.450Z,12.00
2023-06-11T00:37:38.409Z,12.82
2023-06-11T00:40:09.652Z,12.75
2023-06-11T00:42:42.086Z,12.88
2023-06-11T00:45:12.587Z,12.80
2023-06-11T00:47:40.646Z,11.93
2023-06-11T00:50:11.401Z,12.23
2023-06-11T00:52:42.413Z,12.00
2023-06-11T00:55:13.059Z,12.45
2023-06-11T00:57:46.386Z,11.75
2023-06-11T01:00:16.186Z,11.75
2023-06-11T01:02:46.361Z,12.10
2023-06-11T01:05:18.813Z,11.25
2023-06-11T01:07:51.814Z,10.98
2023-06-11T01:10:19.873Z,11.88
2023-06-11T01:12:49.867Z,11.25
2023-06-11T01:15:17.228Z,10.70
2023-06-11T01:17:56.297Z,11.23
2023-06-11T01:20:36.198Z,11.13
2023-06-11T01:23:25.203Z,10.35
2023-06-11T01:26:06.815Z,9.85
2023-06-11T01:31:06.610Z,10.07
2023-06-11T01:33:37.079Z,9.70
2023-06-11T01:36:07.006Z,10.03
2023-06-11T01:38:43.116Z,9.60
2023-06-11T01:41:12.892Z,9.25
2023-06-11T01:43:40.930Z,9.65
2023-06-11T01:46:08.814Z,9.75
2023-06-11T01:48:36.911Z,10.48
2023-06-11T01:51:04.320Z,9.85
2023-06-11T01:53:31.749Z,9.90
2023-06-11T01:56:04.347Z,9.70
2023-06-11T01:58:34.161Z,9.25
2023-06-11T02:01:04.221Z,9.55
2023-06-11T02:03:32.066Z,9.15
2023-06-11T02:06:01.920Z,9.52
2023-06-11T02:08:29.313Z,9.15
2023-06-11T02:11:01.320Z,9.63
2023-06-11T02:13:32.073Z,9.82
2023-06-11T02:16:00.235Z,9.52
2023-06-11T02:18:27.832Z,9.95
2023-06-11T02:20:57.700Z,10.18
2023-06-11T02:23:28.753Z,10.48
2023-06-11T02:25:57.351Z,9.45
2023-06-11T02:28:24.645Z,10.18
2023-06-11T02:30:51.963Z,9.65
2023-06-11T02:33:19.322Z,10.00
2023-06-11T02:35:46.731Z,10.23
2023-06-11T02:38:14.114Z,9.55
2023-06-11T02:40:43.840Z,9.70
2023-06-11T02:43:11.150Z,9.50
2023-06-11T02:45:38.568Z,10.00
2023-06-11T02:48:06.310Z,9.70
2023-06-11T02:50:33.721Z,10.20
2023-06-11T02:53:01.069Z,9.70
2023-06-11T02:55:28.473Z,10.13
2023-06-11T02:57:56.267Z,10.75
2023-06-11T03:00:23.667Z,10.07
2023-06-11T03:02:54.049Z,10.10
2023-06-11T03:05:24.845Z,9.50
2023-06-11T03:07:52.170Z,9.82
2023-06-11T03:10:21.950Z,9.75
2023-06-11T03:12:53.063Z,8.27
2023-06-11T03:15:20.653Z,8.85
2023-06-11T03:17:48.177Z,9.57
2023-06-11T03:20:18.858Z,9.05
2023-06-11T03:22:51.718Z,8.80
2023-06-11T03:25:19.397Z,8.75
2023-06-11T03:27:58.880Z,8.57
2023-06-11T03:30:26.250Z,8.40
2023-06-11T03:32:53.767Z,9.07
2023-06-11T03:35:25.884Z,8.77
2023-06-11T03:37:55.659Z,9.18
2023-06-11T03:40:23.010Z,8.90
2023-06-11T03:42:52.207Z,8.55
2023-06-11T03:45:19.661Z,8.20
2023-06-11T03:47:47.073Z,8.00
2023-06-11T03:50:14.495Z,8.77
2023-06-11T03:52:41.816Z,8.27
2023-06-11T03:55:09.768Z,8.63
2023-06-11T03:57:37.592Z,7.50
2023-06-11T04:00:05.597Z,7.72
2023-06-11T04:02:35.151Z,7.90
2023-06-11T04:05:05.466Z,8.18
2023-06-11T04:07:32.873Z,7.80
2023-06-11T04:10:00.211Z,7.60
2023-06-11T04:12:27.560Z,6.78
2023-06-11T04:14:54.960Z,7.28
2023-06-11T04:17:22.497Z,7.68
2023-06-11T04:19:52.585Z,7.70
2023-06-11T04:22:19.965Z,7.18
2023-06-11T04:24:52.282Z,8.02
2023-06-11T04:27:22.127Z,8.40
2023-06-11T04:29:54.132Z,7.90
2023-06-11T04:32:22.257Z,7.65
2023-06-11T04:34:49.959Z,7.50
2023-06-11T04:37:18.106Z,7.35
2023-06-11T04:39:48.245Z,7.70
2023-06-11T04:42:17.343Z,7.63
2023-06-11T04:44:47.829Z,7.63
2023-06-11T04:47:23.680Z,7.40
2023-06-11T04:49:54.205Z,7.50
2023-06-11T04:52:23.111Z,7.50
2023-06-11T04:54:50.494Z,7.28
2023-06-11T04:57:18.200Z,7.43
2023-06-11T04:59:46.473Z,7.10
2023-06-11T05:02:13.947Z,7.88
2023-06-11T05:04:41.594Z,7.35
2023-06-11T05:07:09.040Z,6.93
2023-06-11T05:09:36.736Z,7.20
2023-06-11T05:12:06.981Z,7.13
2023-06-11T05:14:34.328Z,6.78
2023-06-11T05:17:03.138Z,7.32
2023-06-11T05:19:31.639Z,7.07
2023-06-11T05:22:01.528Z,7.13
2023-06-11T05:24:30.776Z,7.22
2023-06-11T05:27:00.748Z,7.20
2023-06-11T05:29:28.211Z,7.22
2023-06-11T05:31:57.588Z,7.35
2023-06-11T05:34:27.433Z,7.32
2023-06-11T05:36:54.919Z,7.80
2023-06-11T05:39:22.317Z,7.70
2023-06-11T05:41:54.530Z,7.57
2023-06-11T05:44:21.923Z,7.35
2023-06-11T05:46:51.755Z,7.15
2023-06-11T05:49:19.300Z,7.10
2023-06-11T05:51:47.339Z,7.25
2023-06-11T05:54:14.652Z,7.03
2023-06-11T05:56:44.557Z,6.78
2023-06-11T05:59:14.545Z,7.03
2023-06-11T06:01:46.683Z,7.75
2023-06-11T06:04:17.141Z,7.63
2023-06-11T06:06:44.656Z,7.63
2023-06-11T06:09:12.427Z,7.68
2023-06-11T06:11:42.431Z,8.05
2023-06-11T06:14:11.955Z,7.25
2023-06-11T06:16:39.387Z,7.18
2023-06-11T06:19:09.720Z,7.00
2023-06-11T06:21:37.013Z,7.45
2023-06-11T06:24:04.802Z,7.28
2023-06-11T06:26:32.932Z,6.63
2023-06-11T06:29:03.288Z,7.13
2023-06-11T06:31:31.899Z,7.65
2023-06-11T06:33:59.275Z,7.53
2023-06-11T06:36:26.862Z,7.88
2023-06-11T06:38:54.365Z,8.13
2023-06-11T06:41:21.750Z,7.68
2023-06-11T06:43:50.841Z,8.00
2023-06-11T06:46:19.697Z,7.60
2023-06-11T06:48:47.183Z,7.53
2023-06-11T06:51:14.767Z,7.40
2023-06-11T06:53:42.163Z,7.95
2023-06-11T06:56:09.580Z,7.05
2023-06-11T06:58:39.565Z,7.57
2023-06-11T07:01:09.580Z,7.80
2023-06-11T07:03:37.053Z,7.65
2023-06-11T07:06:04.558Z,6.90
2023-06-11T07:08:31.954Z,7.03
2023-06-11T07:11:01.772Z,6.82
2023-06-11T07:13:29.170Z,6.50
2023-06-11T07:15:56.567Z,5.93
2023-06-11T07:18:35.051Z,5.85
2023-06-11T07:21:02.499Z,6.72
2023-06-11T07:23:32.234Z,6.20
2023-06-11T07:25:59.557Z,6.68
2023-06-11T07:28:26.955Z,6.40
2023-06-11T07:30:55.305Z,6.70
2023-06-11T07:33:24.963Z,6.50
2023-06-11T07:35:54.102Z,6.85
2023-06-11T07:38:22.942Z,6.53
2023-06-11T07:40:50.573Z,5.85
2023-06-11T07:43:20.272Z,5.45
2023-06-11T07:45:47.612Z,5.40
2023-06-11T07:48:14.989Z,4.97
2023-06-11T07:50:42.623Z,5.32
2023-06-11T07:53:10.279Z,5.80
2023-06-11T07:55:38.570Z,5.35
2023-06-11T07:58:06.087Z,5.53
2023-06-11T08:00:33.595Z,5.32
2023-06-11T08:03:01.033Z,5.38
2023-06-11T08:05:28.501Z,4.93
2023-06-11T08:07:55.951Z,5.75
2023-06-11T08:10:23.509Z,5.18
2023-06-11T08:12:53.306Z,5.50
2023-06-11T08:15:20.896Z,5.30
2023-06-11T08:17:48.444Z,5.20
2023-06-11T08:20:18.031Z,5.25
2023-06-11T08:22:45.638Z,5.57
2023-06-11T08:25:13.192Z,5.15
2023-06-11T08:27:40.670Z,5.53
2023-06-11T08:30:09.060Z,5.00
2023-06-11T08:32:36.596Z,5.10
2023-06-11T08:35:04.394Z,4.97
2023-06-11T08:37:31.807Z,5.28
2023-06-11T08:39:59.113Z,5.00
2023-06-11T08:42:26.517Z,5.35
2023-06-11T08:44:53.877Z,5.22
2023-06-11T08:47:24.268Z,4.95
2023-06-11T08:49:57.108Z,4.93
2023-06-11T08:52:27.315Z,4.78
2023-06-11T08:54:55.018Z,5.18
2023-06-11T08:57:23.042Z,5.30
2023-06-11T08:59:50.520Z,5.20
2023-06-11T09:02:19.191Z,5.15
2023-06-11T09:04:49.045Z,4.90
2023-06-11T09:07:25.031Z,5.00
2023-06-11T09:10:12.139Z,4.53
2023-06-11T09:12:39.832Z,4.85
2023-06-11T09:15:10.855Z,5.10
2023-06-11T09:17:42.907Z,5.10
2023-06-11T09:20:14.781Z,5.05
2023-06-11T09:22:49.048Z,4.95
2023-06-11T09:25:19.728Z,5.13
2023-06-11T09:27:49.181Z,5.38
2023-06-11T09:30:19.415Z,4.93
2023-06-11T09:32:52.865Z,6.30
2023-06-11T09:35:22.654Z,5.53
2023-06-11T09:37:54.275Z,4.72
2023-06-11T09:42:52.758Z,5.40
2023-06-11T09:45:22.658Z,5.43
2023-06-11T09:47:52.554Z,4.70
2023-06-11T09:50:23.082Z,4.57
2023-06-11T09:52:54.551Z,4.03
2023-06-11T09:57:52.130Z,3.60
2023-06-11T10:00:20.096Z,3.53
2023-06-11T10:02:49.823Z,4.00
2023-06-11T10:05:17.393Z,3.53
2023-06-11T10:07:48.041Z,3.67
2023-06-11T10:10:22.872Z,4.10
2023-06-11T10:12:56.677Z,3.67
2023-06-11T10:15:25.686Z,3.72
2023-06-11T10:17:54.916Z,3.42
2023-06-11T10:20:26.486Z,3.70
2023-06-11T10:23:08.704Z,3.88
2023-06-11T10:25:55.754Z,4.00
2023-06-11T10:28:39.294Z,3.70
2023-06-11T10:31:06.793Z,3.42
2023-06-11T10:33:45.306Z,3.90
2023-06-11T10:36:42.409Z,3.92
2023-06-11T10:39:10.567Z,4.00
2023-06-11T10:41:42.770Z,3.40
2023-06-11T10:44:15.499Z,3.83
2023-06-11T10:46:50.670Z,3.58
2023-06-11T10:49:21.797Z,3.22
2023-06-11T10:51:53.762Z,3.20
2023-06-11T10:54:31.495Z,3.03
2023-06-11T10:57:03.939Z,3.25
2023-06-11T10:59:33.297Z,3.20
2023-06-11T11:02:00.852Z,3.03
2023-06-11T11:04:30.787Z,3.40
2023-06-11T11:07:10.263Z,2.95
2023-06-11T11:09:38.089Z,3.42
2023-06-11T11:12:06.789Z,3.55
2023-06-11T11:14:35.016Z,3.35
2023-06-11T11:17:03.004Z,3.38
2023-06-11T11:19:34.798Z,3.00
2023-06-11T11:22:02.213Z,2.70
2023-06-11T11:24:34.115Z,3.28
2023-06-11T11:27:01.972Z,2.70
2023-06-11T11:29:29.612Z,2.80
2023-06-11T11:31:57.957Z,2.83
2023-06-11T11:34:27.631Z,2.80
2023-06-11T11:36:58.487Z,3.08
2023-06-11T11:39:27.993Z,2.83
2023-06-11T11:41:55.580Z,3.33
2023-06-11T11:44:25.636Z,2.70
2023-06-11T11:46:57.503Z,2.60
2023-06-11T11:49:37.320Z,2.85
2023-06-11T11:52:07.683Z,2.92
2023-06-11T11:54:42.046Z,3.08
2023-06-11T11:57:09.434Z,2.70
2023-06-11T11:59:41.193Z,2.47
2023-06-11T12:02:09.399Z,2.60
2023-06-11T12:04:46.499Z,2.80
2023-06-11T12:07:20.296Z,2.53
2023-06-11T12:09:48.001Z,2.50
2023-06-11T12:12:15.419Z,2.88
2023-06-11T12:14:42.825Z,2.22
2023-06-11T12:17:12.222Z,2.50
2023-06-11T12:19:39.853Z,2.08
2023-06-11T12:22:09.692Z,2.22
2023-06-11T12:24:39.713Z,2.72
2023-06-11T12:27:12.674Z,2.15
2023-06-11T12:29:40.586Z,2.03
2023-06-11T12:32:16.180Z,1.90
2023-06-11T12:34:43.635Z,2.10
2023-06-11T12:37:11.480Z,2.33
2023-06-11T12:39:38.996Z,2.40
2023-06-11T12:42:07.592Z,2.08
2023-06-11T12:44:35.100Z,2.30
2023-06-11T12:47:02.635Z,2.25
2023-06-11T12:49:32.657Z,2.40
2023-06-11T12:52:00.054Z,2.30
2023-06-11T12:54:27.400Z,2.42
2023-06-11T12:56:54.873Z,2.30
2023-06-11T12:59:23.717Z,1.95
2023-06-11T13:01:51.739Z,2.05
2023-06-11T13:04:19.268Z,2.20
2023-06-11T13:06:49.140Z,2.40
2023-06-11T13:09:16.739Z,2.00
2023-06-11T13:11:49.533Z,1.83
2023-06-11T13:14:19.006Z,2.08
2023-06-11T13:16:46.863Z,2.10
2023-06-11T13:19:14.479Z,1.88
2023-06-11T13:21:42.034Z,1.80
2023-06-11T13:24:09.500Z,2.10
2023-06-11T13:26:36.928Z,1.70
2023-06-11T13:29:04.329Z,1.88
2023-06-11T13:31:34.384Z,1.50
2023-06-11T13:34:02.529Z,1.95
2023-06-11T13:36:30.644Z,1.77
2023-06-11T13:38:58.431Z,1.85
2023-06-11T13:41:26.788Z,2.10
2023-06-11T13:43:55.385Z,1.77
2023-06-11T13:46:23.102Z,1.60
2023-06-11T13:48:50.469Z,1.75
2023-06-11T13:51:18.206Z,1.70
2023-06-11T13:53:48.072Z,1.70
2023-06-11T13:56:15.790Z,1.73
2023-06-11T13:58:43.275Z,1.85
2023-06-11T14:01:10.722Z,1.92
2023-06-11T14:03:38.504Z,2.20
2023-06-11T14:06:06.157Z,2.15
2023-06-11T14:08:33.558Z,2.10
2023-06-11T14:11:01.093Z,2.30
2023-06-11T14:13:30.874Z,2.17
2023-06-11T14:15:59.617Z,2.67
2023-06-11T14:18:27.016Z,2.40
2023-06-11T14:20:58.490Z,2.53
2023-06-11T14:23:26.293Z,2.13
2023-06-11T14:25:56.313Z,2.40
2023-06-11T14:28:23.782Z,2.63
2023-06-11T14:30:53.806Z,2.47
2023-06-11T14:33:21.687Z,2.63
2023-06-11T14:35:51.752Z,3.00
2023-06-11T14:38:19.904Z,2.30
2023-06-11T14:40:47.676Z,2.63
2023-06-11T14:43:17.230Z,2.50
2023-06-11T14:45:49.504Z,2.63
2023-06-11T14:48:19.098Z,2.67
2023-06-11T14:50:49.010Z,2.50
2023-06-11T14:53:16.525Z,2.78
2023-06-11T14:55:44.430Z,2.55
2023-06-11T14:58:13.936Z,2.60
2023-06-11T15:00:43.657Z,2.55
2023-06-11T15:03:13.624Z,2.88
2023-06-11T15:05:43.396Z,2.30
2023-06-11T15:08:11.031Z,2.80
2023-06-11T15:10:40.454Z,2.40
2023-06-11T15:13:10.416Z,2.42
2023-06-11T15:15:39.137Z,2.72
2023-06-11T15:18:08.679Z,2.67
2023-06-11T15:20:36.217Z,2.97
2023-06-11T15:23:03.854Z,2.70
2023-06-11T15:25:31.161Z,2.30
2023-06-11T15:27:58.619Z,2.72
2023-06-11T15:30:27.426Z,2.72
2023-06-11T15:32:57.481Z,3.10
2023-06-11T15:35:26.819Z,2.97
2023-06-11T15:37:54.196Z,2.75
2023-06-11T15:40:23.962Z,3.30
2023-06-11T15:42:53.408Z,2.95
2023-06-11T15:45:21.029Z,2.70
2023-06-11T15:47:49.649Z,2.83
2023-06-11T15:50:17.228Z,3.33
2023-06-11T15:52:45.213Z,2.50
2023-06-11T15:55:13.387Z,3.08
2023-06-11T15:57:41.135Z,2.90
2023-06-11T16:00:09.149Z,2.90
2023-06-11T16:02:38.944Z,2.60
2023-06-11T16:05:06.658Z,2.88
2023-06-11T16:07:34.272Z,2.60
2023-06-11T16:10:04.189Z,2.85
2023-06-11T16:12:31.626Z,3.10
2023-06-11T16:15:01.455Z,3.30
2023-06-11T16:17:28.951Z,2.80
2023-06-11T16:19:57.479Z,2.88
2023-06-11T16:22:27.338Z,3.03
2023-06-11T16:24:54.729Z,2.83
2023-06-11T16:27:24.344Z,2.80
2023-06-11T16:29:51.792Z,3.10
2023-06-11T16:32:19.142Z,3.10
2023-06-11T16:34:51.087Z,2.90
2023-06-11T16:37:21.033Z,3.20
2023-06-11T16:39:50.695Z,3.30
2023-06-11T16:42:18.058Z,3.70
2023-06-11T16:44:48.341Z,3.20
2023-06-11T16:47:15.857Z,3.43
2023-06-11T16:49:43.276Z,3.28
2023-06-11T16:52:17.252Z,3.45
2023-06-11T16:54:44.630Z,3.67
2023-06-11T16:57:12.560Z,3.70
2023-06-11T16:59:42.103Z,3.58
2023-06-11T17:02:09.484Z,3.80
2023-06-11T17:04:37.062Z,3.63
2023-06-11T17:07:10.376Z,3.80
2023-06-11T17:09:40.089Z,3.88
2023-06-11T17:12:08.088Z,3.88
2023-06-11T17:14:35.502Z,3.80
2023-06-11T17:17:02.942Z,4.05
2023-06-11T17:19:30.664Z,3.92
2023-06-11T17:22:00.725Z,4.00
2023-06-11T17:24:28.175Z,3.40
2023-06-11T17:26:57.980Z,4.07
2023-06-11T17:29:30.289Z,3.78
2023-06-11T17:31:59.797Z,3.85
2023-06-11T17:34:27.184Z,3.83
2023-06-11T17:36:54.511Z,3.85
2023-06-11T17:39:21.814Z,4.13
2023-06-11T17:41:49.311Z,4.00
2023-06-11T17:44:18.491Z,4.30
2023-06-11T17:46:48.500Z,4.40
2023-06-11T17:49:15.916Z,4.10
2023-06-11T17:51:43.819Z,4.03
2023-06-11T17:54:12.654Z,3.97
2023-06-11T17:56:41.395Z,3.92
2023-06-11T17:59:08.717Z,3.80
2023-06-11T18:01:37.865Z,4.30
2023-06-11T18:04:05.811Z,4.00
2023-06-11T18:06:34.347Z,3.92
2023-06-11T18:09:02.208Z,4.53
2023-06-11T18:11:29.874Z,4.20
2023-06-11T18:14:00.724Z,4.50
2023-06-11T18:16:28.734Z,4.20
2023-06-11T18:18:56.695Z,4.40
2023-06-11T18:21:24.334Z,4.55
2023-06-11T18:23:52.276Z,4.35
2023-06-11T18:26:22.971Z,4.63
2023-06-11T18:28:50.586Z,4.63
2023-06-11T18:31:20.405Z,4.43
2023-06-11T18:33:48.831Z,4.30
2023-06-11T18:36:16.706Z,4.40
2023-06-11T18:38:46.345Z,4.40
2023-06-11T18:41:15.761Z,4.47
2023-06-11T18:43:43.316Z,4.00
2023-06-11T18:46:10.921Z,4.68
2023-06-11T18:48:38.548Z,3.90
2023-06-11T18:51:06.171Z,4.30
2023-06-11T18:53:33.550Z,4.05
2023-06-11T18:56:05.625Z,4.22
2023-06-11T18:58:34.024Z,4.40
2023-06-11T19:01:01.440Z,4.38
2023-06-11T19:03:29.074Z,4.40
2023-06-11T19:05:56.659Z,4.13
2023-06-11T19:08:24.122Z,4.28
2023-06-11T19:10:51.500Z,4.30
2023-06-11T19:13:19.124Z,4.38
2023-06-11T19:15:47.151Z,4.13
2023-06-11T19:18:15.780Z,4.60
2023-06-11T19:20:43.809Z,4.80
2023-06-11T19:23:14.476Z,4.38
2023-06-11T19:25:42.693Z,4.65
2023-06-11T19:28:10.157Z,4.40
2023-06-11T19:30:37.782Z,4.50
2023-06-11T19:33:05.550Z,4.78
2023-06-11T19:35:34.391Z,4.75
2023-06-11T19:38:04.079Z,4.43
2023-06-11T19:40:31.683Z,4.50
2023-06-11T19:43:01.661Z,4.53
2023-06-11T19:45:29.152Z,4.15
2023-06-11T19:47:56.764Z,4.60
2023-06-11T19:50:27.290Z,4.75
2023-06-11T19:52:54.974Z,4.28
2023-06-11T19:55:24.311Z,4.47
2023-06-11T19:57:51.891Z,5.13
2023-06-11T20:00:20.640Z,11.65
2023-06-11T20:02:49.059Z,5.43
2023-06-11T20:05:18.908Z,4.75
2023-06-11T20:07:46.919Z,5.25
2023-06-11T20:10:14.930Z,4.55
2023-06-11T20:12:44.799Z,5.88
2023-06-11T20:15:12.561Z,5.90
2023-06-11T20:17:42.307Z,4.65
2023-06-11T20:20:10.363Z,4.78
2023-06-11T20:22:38.011Z,4.40
2023-06-11T20:25:05.787Z,5.03
2023-06-11T20:27:33.174Z,4.75
2023-06-11T20:30:00.712Z,4.88
2023-06-11T20:32:30.925Z,5.18
2023-06-11T20:35:00.965Z,4.97
2023-06-11T20:37:28.469Z,5.00
2023-06-11T20:39:55.783Z,5.05
2023-06-11T20:42:23.130Z,4.65
2023-06-11T20:44:52.891Z,5.57
2023-06-11T20:47:20.391Z,5.72
2023-06-11T20:49:48.964Z,7.15
2023-06-11T20:52:16.308Z,6.15
2023-06-11T20:54:43.658Z,5.72
2023-06-11T20:57:11.341Z,5.53
2023-06-11T20:59:41.565Z,5.32
2023-06-11T21:02:13.524Z,5.32
2023-06-11T21:04:41.063Z,5.50
2023-06-11T21:07:08.559Z,5.72
2023-06-11T21:09:35.902Z,5.25
2023-06-11T21:12:06.311Z,6.13
2023-06-11T21:14:35.965Z,6.57
2023-06-11T21:17:05.876Z,6.32
2023-06-11T21:19:35.576Z,6.57
2023-06-11T21:22:03.068Z,8.73
2023-06-11T21:24:32.802Z,7.55
2023-06-11T21:27:00.189Z,6.97
2023-06-11T21:29:29.860Z,6.82
2023-06-11T21:31:57.252Z,6.78
2023-06-11T21:34:24.615Z,7.22
2023-06-11T21:36:52.057Z,6.30
2023-06-11T21:39:19.493Z,6.78
2023-06-11T21:41:46.902Z,6.90
2023-06-11T21:44:15.186Z,6.63
2023-06-11T21:46:42.776Z,7.10
2023-06-11T21:49:10.268Z,7.25
2023-06-11T21:51:37.778Z,7.75
2023-06-11T21:54:05.888Z,7.30
2023-06-11T21:56:33.252Z,7.63
2023-06-11T21:59:00.647Z,7.05
2023-06-11T22:01:27.977Z,7.43
2023-06-11T22:03:55.425Z,7.63
2023-06-11T22:06:25.231Z,8.02
2023-06-11T22:08:55.569Z,7.78
2023-06-11T22:11:24.999Z,8.15
2023-06-11T22:13:52.292Z,7.78
2023-06-11T22:16:24.716Z,7.75
2023-06-11T22:18:53.230Z,7.97
2023-06-11T22:21:22.831Z,7.50
2023-06-11T22:23:52.081Z,7.35
2023-06-11T22:26:22.362Z,8.10
2023-06-11T22:28:51.263Z,7.78
2023-06-11T22:31:18.749Z,8.13
2023-06-11T22:33:46.169Z,8.77
2023-06-11T22:36:13.567Z,8.35
2023-06-11T22:38:41.236Z,8.32
2023-06-11T22:41:10.284Z,8.52
2023-06-11T22:43:37.742Z,8.35
2023-06-11T22:46:05.107Z,8.73
2023-06-11T22:48:32.478Z,8.50
2023-06-11T22:50:59.821Z,8.70
2023-06-11T22:53:29.152Z,8.80
2023-06-11T22:55:57.385Z,9.07
2023-06-11T22:58:24.701Z,8.80
2023-06-11T23:00:56.182Z,8.70
2023-06-11T23:03:23.744Z,9.00
2023-06-11T23:05:51.177Z,8.95
2023-06-11T23:08:18.548Z,8.20
2023-06-11T23:10:45.969Z,9.20
2023-06-11T23:13:15.733Z,8.77
2023-06-11T23:15:43.168Z,9.27
2023-06-11T23:18:13.013Z,8.73
2023-06-11T23:20:47.793Z,8.85
2023-06-11T23:23:16.705Z,8.68
2023-06-11T23:25:45.581Z,9.30
2023-06-11T23:28:16.046Z,9.20
2023-06-11T23:30:45.495Z,8.63
2023-06-11T23:33:15.260Z,9.15
2023-06-11T23:35:43.234Z,9.23
2023-06-11T23:38:11.167Z,9.38
2023-06-11T23:40:41.346Z,9.50
2023-06-11T23:43:08.636Z,9.63
2023-06-11T23:45:35.977Z,10.18
2023-06-11T23:48:03.583Z,9.18
2023-06-11T23:50:31.038Z,9.63
2023-06-11T23:53:00.962Z,9.13
2023-06-11T23:55:28.379Z,9.85
2023-06-11T23:58:24.037Z,9.82
